Time;durP1;ratioP1;P1;durP2;ratioP2;P2;SDS_P1;SDS_P2;PMS_P1;PMS_P2;Temp;Humidity;BMP_temperature;BMP_pressure;BME280_temperature;BME280_humidity;BME280_pressure;Samples;Min_cycle;Max_cycle;Signal;HPM_P1;HPM_P2
2023/08/21 00:01:16;;;;;;;6.85;4.95;;;;;;;22.56;100.00;96540.84;5095078;28;20108;-71
2023/08/21 00:03:41;;;;;;;5.40;4.88;;;;;;;22.52;100.00;96539.56;5107853;28;20042;-71
2023/08/21 00:06:06;;;;;;;8.45;4.70;;;;;;;22.45;100.00;96545.69;5106554;28;20085;-71
2023/08/21 00:08:32;;;;;;;7.53;4.88;;;;;;;22.43;100.00;96550.44;5097883;28;20016;-71
2023/08/21 00:10:57;;;;;;;10.77;5.13;;;;;;;22.40;100.00;96563.38;5095981;28;20058;-71
2023/08/21 00:13:22;;;;;;;6.20;4.38;;;;;;;22.39;100.00;96548.31;5112006;28;20102;-71
2023/08/21 00:15:48;;;;;;;8.90;5.03;;;;;;;22.36;100.00;96543.34;5108098;28;20102;-71
2023/08/21 00:18:14;;;;;;;10.90;4.95;;;;;;;22.38;100.00;96541.31;5104342;28;20039;-71
2023/08/21 00:20:41;;;;;;;7.90;5.10;;;;;;;22.34;100.00;96546.25;5095749;28;20027;-72
2023/08/21 00:23:07;;;;;;;9.85;4.80;;;;;;;22.33;100.00;96540.03;5106416;28;20209;-71
2023/08/21 00:25:33;;;;;;;12.50;5.03;;;;;;;22.29;100.00;96552.19;5111042;28;20098;-71
2023/08/21 00:27:58;;;;;;;8.63;5.50;;;;;;;22.25;100.00;96550.09;5096076;28;20030;-71
2023/08/21 00:30:24;;;;;;;6.55;4.65;;;;;;;22.18;100.00;96550.03;5096171;28;20536;-71
2023/08/21 00:32:49;;;;;;;7.05;5.22;;;;;;;22.17;100.00;96543.00;5094067;28;20031;-72
2023/08/21 00:35:15;;;;;;;10.25;4.97;;;;;;;22.16;100.00;96554.75;5098056;28;20095;-71
2023/08/21 00:37:40;;;;;;;9.82;4.88;;;;;;;22.09;100.00;96557.38;5116733;27;20083;-71
2023/08/21 00:40:06;;;;;;;5.75;4.30;;;;;;;22.07;100.00;96548.72;5095651;28;20069;-72
2023/08/21 00:42:31;;;;;;;8.18;4.15;;;;;;;22.07;100.00;96554.06;5095834;28;20373;-72
2023/08/21 00:44:57;;;;;;;7.57;4.93;;;;;;;22.02;100.00;96546.63;5098852;28;20034;-72
2023/08/21 00:47:23;;;;;;;6.28;4.95;;;;;;;22.01;100.00;96552.16;5099546;28;20023;-72
2023/08/21 00:49:48;;;;;;;11.18;4.90;;;;;;;22.02;100.00;96553.81;5105106;27;20031;-71
2023/08/21 00:52:14;;;;;;;6.18;5.20;;;;;;;21.95;100.00;96548.41;5099089;28;20101;-71
2023/08/21 00:54:40;;;;;;;10.93;4.70;;;;;;;21.91;100.00;96549.00;5095466;28;20058;-71
2023/08/21 00:57:06;;;;;;;11.05;4.65;;;;;;;21.85;100.00;96550.59;5096034;28;20062;-71
2023/08/21 00:59:31;;;;;;;7.68;4.65;;;;;;;21.82;100.00;96559.03;5095734;28;20107;-71
2023/08/21 01:01:57;;;;;;;7.28;4.18;;;;;;;21.77;100.00;96564.09;5093748;28;20024;-71
2023/08/21 01:04:22;;;;;;;7.80;4.43;;;;;;;21.78;100.00;96568.47;5094833;28;20020;-71
2023/08/21 01:06:49;;;;;;;8.15;4.38;;;;;;;21.77;100.00;96558.75;5095094;28;20031;-72
2023/08/21 01:09:33;;;;;;;7.90;4.90;;;;;;;21.73;100.00;96564.50;5103690;28;20023;-71
2023/08/21 01:12:15;;;;;;;5.57;4.47;;;;;;;21.74;100.00;96568.03;5096071;28;20413;-71
2023/08/21 01:14:54;;;;;;;6.63;4.25;;;;;;;21.69;100.00;96557.88;5093173;28;20034;-71
2023/08/21 01:17:22;;;;;;;5.15;4.25;;;;;;;21.67;100.00;96562.59;5109525;28;20052;-71
2023/08/21 01:19:49;;;;;;;4.82;4.25;;;;;;;21.61;100.00;96566.00;5114273;27;20110;-71
2023/08/21 01:22:15;;;;;;;5.82;4.32;;;;;;;21.59;100.00;96557.34;5100504;28;20454;-71
2023/08/21 01:24:43;;;;;;;7.80;4.80;;;;;;;21.57;100.00;96560.19;5113095;28;20027;-70
2023/08/21 01:27:13;;;;;;;5.88;4.50;;;;;;;21.63;100.00;96558.59;5115502;27;20059;-71
2023/08/21 01:29:39;;;;;;;9.10;4.93;;;;;;;21.62;100.00;96556.94;5111623;28;20060;-71
2023/08/21 01:32:23;;;;;;;14.40;4.70;;;;;;;21.59;100.00;96552.78;5096559;28;20024;-71
2023/08/21 01:34:51;;;;;;;7.80;4.43;;;;;;;21.51;100.00;96560.97;5107705;27;20035;-71
2023/08/21 01:37:17;;;;;;;11.38;5.55;;;;;;;21.52;100.00;96567.13;5094077;28;20290;-71
2023/08/21 01:39:42;;;;;;;8.25;5.05;;;;;;;21.55;100.00;96558.72;5104888;28;20051;-71
2023/08/21 01:42:08;;;;;;;14.07;4.43;;;;;;;21.52;100.00;96561.78;5096301;28;20016;-71
2023/08/21 01:44:33;;;;;;;10.93;5.05;;;;;;;21.46;100.00;96569.56;5093131;28;20016;-70
2023/08/21 01:46:59;;;;;;;9.68;4.85;;;;;;;21.39;100.00;96579.38;5093515;28;20028;-71
2023/08/21 01:49:24;;;;;;;8.82;4.60;;;;;;;21.31;100.00;96574.97;5099842;28;20038;-71
2023/08/21 01:51:49;;;;;;;10.95;5.10;;;;;;;21.25;100.00;96583.75;5114293;28;20027;-71
2023/08/21 01:54:15;;;;;;;6.63;4.50;;;;;;;21.17;100.00;96595.41;5106664;28;20558;-72
2023/08/21 01:56:40;;;;;;;8.13;5.13;;;;;;;21.10;100.00;96594.47;5094400;28;20074;-71
2023/08/21 01:59:08;;;;;;;6.05;5.05;;;;;;;21.10;100.00;96597.13;5106222;28;20076;-71
2023/08/21 02:01:34;;;;;;;8.18;5.20;;;;;;;21.08;100.00;96599.16;5108800;28;20035;-71
2023/08/21 02:03:59;;;;;;;9.63;5.13;;;;;;;21.06;100.00;96595.84;5114342;28;20391;-71
2023/08/21 02:06:25;;;;;;;7.55;5.03;;;;;;;21.07;100.00;96586.00;5104526;28;20024;-71
2023/08/21 02:08:50;;;;;;;9.80;4.88;;;;;;;21.06;100.00;96598.53;5111265;28;20075;-71
2023/08/21 02:11:16;;;;;;;8.55;5.22;;;;;;;21.08;100.00;96593.00;5095353;28;20460;-70
2023/08/21 02:13:41;;;;;;;8.00;4.90;;;;;;;20.99;100.00;96601.13;5093698;28;20128;-71
2023/08/21 02:16:06;;;;;;;9.30;5.10;;;;;;;20.96;100.00;96598.81;5107540;28;20035;-71
2023/08/21 02:18:32;;;;;;;7.82;4.97;;;;;;;20.92;100.00;96610.91;5106298;28;20024;-72
2023/08/21 02:20:57;;;;;;;9.15;5.22;;;;;;;20.88;100.00;96602.41;5094739;28;20055;-71
2023/08/21 02:23:24;;;;;;;6.95;5.72;;;;;;;20.84;100.00;96593.09;5096516;28;20049;-71
2023/08/21 02:25:49;;;;;;;5.97;4.90;;;;;;;20.81;100.00;96592.66;5099278;28;20449;-71
2023/08/21 02:28:15;;;;;;;6.60;5.00;;;;;;;20.78;100.00;96599.16;5121936;28;20077;-71
2023/08/21 02:30:41;;;;;;;8.00;4.95;;;;;;;20.80;100.00;96599.03;5091059;28;20051;-70
2023/08/21 02:33:06;;;;;;;10.25;4.68;;;;;;;20.79;100.00;96603.50;5112548;28;20031;-72
2023/08/21 02:35:32;;;;;;;5.53;5.00;;;;;;;20.78;100.00;96606.34;5101202;28;20023;-71
2023/08/21 02:37:57;;;;;;;6.97;4.88;;;;;;;20.75;100.00;96599.53;5099435;28;20109;-71
2023/08/21 02:40:23;;;;;;;8.90;4.85;;;;;;;20.74;100.00;96601.38;5104291;28;20016;-71
2023/08/21 02:42:48;;;;;;;7.65;4.97;;;;;;;20.73;100.00;96596.22;5094817;28;20039;-71
2023/08/21 02:45:13;;;;;;;10.98;4.93;;;;;;;20.76;100.00;96603.88;5099530;28;20027;-71
2023/08/21 02:47:40;;;;;;;9.77;5.32;;;;;;;20.75;100.00;96596.88;5095424;28;20064;-71
2023/08/21 02:50:08;;;;;;;8.00;4.97;;;;;;;20.74;100.00;96592.53;5106645;28;20027;-71
2023/08/21 02:52:34;;;;;;;11.82;5.50;;;;;;;20.74;100.00;96603.22;5094571;28;20032;-71
2023/08/21 02:55:01;;;;;;;8.70;5.05;;;;;;;20.79;100.00;96590.13;5093618;28;20035;-71
2023/08/21 02:57:26;;;;;;;11.52;5.70;;;;;;;20.76;100.00;96591.31;5092427;28;20109;-71
2023/08/21 02:59:52;;;;;;;11.25;5.25;;;;;;;20.77;100.00;96584.13;5104667;28;20039;-71
2023/08/21 03:02:18;;;;;;;6.70;4.88;;;;;;;20.74;100.00;96581.81;5094669;28;20032;-71
2023/08/21 03:04:44;;;;;;;7.50;4.95;;;;;;;20.74;100.00;96588.00;5093635;28;20032;-71
2023/08/21 03:07:09;;;;;;;16.50;5.68;;;;;;;20.73;100.00;96597.03;5105677;28;20024;-71
2023/08/21 03:09:36;;;;;;;8.73;4.38;;;;;;;20.72;100.00;96594.56;5096539;28;20032;-71
2023/08/21 03:12:01;;;;;;;14.00;4.97;;;;;;;20.68;100.00;96593.28;5099538;28;20043;-71
2023/08/21 03:14:27;;;;;;;12.38;5.07;;;;;;;20.73;100.00;96598.91;5093416;28;20023;-71
2023/08/21 03:16:52;;;;;;;6.82;4.90;;;;;;;20.75;100.00;96594.19;5106126;28;20111;-72
2023/08/21 03:19:18;;;;;;;6.47;5.22;;;;;;;20.70;100.00;96586.72;5094237;28;20032;-70
2023/08/21 03:21:43;;;;;;;7.07;4.95;;;;;;;20.68;100.00;96587.94;5093287;28;20055;-71
2023/08/21 03:24:08;;;;;;;8.05;5.10;;;;;;;20.64;100.00;96600.81;5093409;28;20069;-71
2023/08/21 03:26:34;;;;;;;8.27;4.78;;;;;;;20.61;100.00;96598.53;5108673;27;20020;-71
2023/08/21 03:29:00;;;;;;;6.68;4.90;;;;;;;20.58;100.00;96604.25;5110233;28;20051;-71
2023/08/21 03:31:25;;;;;;;8.43;4.88;;;;;;;20.54;100.00;96597.56;5095535;28;20035;-71
2023/08/21 03:33:51;;;;;;;7.15;4.78;;;;;;;20.50;100.00;96609.66;5116714;27;20024;-71
2023/08/21 03:36:16;;;;;;;8.40;4.38;;;;;;;20.47;100.00;96603.66;5115432;28;20087;-71
2023/08/21 03:38:42;;;;;;;10.70;5.18;;;;;;;20.52;100.00;96594.25;5096580;28;20089;-71
2023/08/21 03:41:07;;;;;;;7.65;4.72;;;;;;;20.53;100.00;96583.38;5100597;28;20114;-71
2023/08/21 03:43:32;;;;;;;9.75;5.35;;;;;;;20.50;100.00;96602.47;5096721;28;20020;-71
2023/08/21 03:45:58;;;;;;;7.50;5.35;;;;;;;20.47;100.00;96597.50;5109772;28;20092;-71
2023/08/21 03:48:24;;;;;;;9.02;5.25;;;;;;;20.42;100.00;96599.88;5105799;28;20024;-71
2023/08/21 03:50:50;;;;;;;9.35;6.22;;;;;;;20.40;100.00;96605.41;5108905;27;20100;-71
2023/08/21 03:53:15;;;;;;;10.98;5.15;;;;;;;20.38;100.00;96609.28;5107355;28;20031;-71
2023/08/21 03:55:40;;;;;;;11.75;5.93;;;;;;;20.32;100.00;96603.63;5096844;28;20054;-71
2023/08/21 03:58:06;;;;;;;6.03;5.28;;;;;;;20.28;100.00;96620.22;5096364;28;20391;-71
2023/08/21 04:00:31;;;;;;;11.50;4.95;;;;;;;20.22;100.00;96619.09;5107879;28;20035;-71
2023/08/21 04:02:57;;;;;;;10.50;5.18;;;;;;;20.17;100.00;96624.16;5096607;28;20031;-71
2023/08/21 04:05:23;;;;;;;8.52;5.13;;;;;;;20.17;100.00;96618.81;5096777;28;20028;-71
2023/08/21 04:07:48;;;;;;;10.25;5.55;;;;;;;20.14;100.00;96620.00;5108674;28;20478;-72
2023/08/21 04:10:14;;;;;;;9.93;5.57;;;;;;;20.09;100.00;96632.25;5102998;28;20424;-71
2023/08/21 04:12:39;;;;;;;9.07;4.97;;;;;;;20.07;100.00;96628.94;5110325;28;20024;-71
2023/08/21 04:15:06;;;;;;;5.88;5.03;;;;;;;20.06;100.00;96621.91;5096366;28;20031;-71
2023/08/21 04:17:31;;;;;;;7.97;5.07;;;;;;;20.01;100.00;96631.31;5096449;28;20114;-71
2023/08/21 04:19:57;;;;;;;10.05;5.20;;;;;;;19.98;100.00;96625.47;5094863;28;20075;-71
2023/08/21 04:22:22;;;;;;;10.07;5.43;;;;;;;19.95;100.00;96629.34;5110929;28;20523;-71
2023/08/21 04:24:48;;;;;;;6.05;5.20;;;;;;;19.92;100.00;96626.19;5103498;28;20393;-71
2023/08/21 04:27:13;;;;;;;7.40;4.85;;;;;;;19.90;100.00;96629.00;5094168;28;20020;-71
2023/08/21 04:29:39;;;;;;;9.93;5.15;;;;;;;19.88;100.00;96626.50;5095855;28;20059;-72
2023/08/21 04:32:06;;;;;;;8.43;4.85;;;;;;;19.84;100.00;96622.53;5095798;28;20031;-72
2023/08/21 04:34:34;;;;;;;8.90;5.13;;;;;;;19.83;100.00;96630.75;5109652;27;20645;-71
2023/08/21 04:37:00;;;;;;;7.63;4.93;;;;;;;19.82;100.00;96632.56;5093458;28;20519;-71
2023/08/21 04:39:25;;;;;;;8.13;5.50;;;;;;;19.81;100.00;96630.91;5095675;28;20027;-71
2023/08/21 04:41:51;;;;;;;7.75;5.38;;;;;;;19.79;100.00;96637.44;5094019;28;20114;-71
2023/08/21 04:44:17;;;;;;;6.47;5.00;;;;;;;19.76;100.00;96638.63;5095307;28;20039;-72
2023/08/21 04:46:43;;;;;;;5.68;4.82;;;;;;;19.72;100.00;96635.47;5103501;28;20035;-71
2023/08/21 04:49:08;;;;;;;9.98;6.32;;;;;;;19.72;100.00;96632.78;5110730;27;20055;-71
2023/08/21 04:51:34;;;;;;;10.38;5.72;;;;;;;19.74;100.00;96646.81;5105190;28;20028;-71
2023/08/21 04:54:00;;;;;;;8.50;5.45;;;;;;;19.79;100.00;96648.13;5095390;28;20531;-71
2023/08/21 04:56:26;;;;;;;8.88;5.40;;;;;;;19.73;100.00;96645.13;5096208;28;20392;-71
2023/08/21 04:58:52;;;;;;;9.38;5.45;;;;;;;19.68;100.00;96646.69;5095947;28;20016;-71
2023/08/21 05:01:18;;;;;;;8.45;5.40;;;;;;;19.69;100.00;96648.34;5095003;28;20012;-71
2023/08/21 05:03:43;;;;;;;9.32;6.18;;;;;;;19.66;100.00;96660.22;5106923;28;20027;-71
2023/08/21 05:06:08;;;;;;;11.70;5.72;;;;;;;19.65;100.00;96655.03;5097986;28;20026;-71
2023/08/21 05:08:34;;;;;;;10.65;5.50;;;;;;;19.67;100.00;96655.69;5110201;27;20068;-71
2023/08/21 05:11:00;;;;;;;11.15;5.82;;;;;;;19.70;100.00;96655.38;5096369;28;20099;-71
2023/08/21 05:13:26;;;;;;;8.40;5.82;;;;;;;19.72;100.00;96659.50;5094923;28;20053;-71
2023/08/21 05:15:54;;;;;;;14.13;6.10;;;;;;;19.75;100.00;96655.66;5094818;28;20043;-71
2023/08/21 05:18:20;;;;;;;8.93;5.72;;;;;;;19.75;100.00;96658.34;5093633;28;20069;-71
2023/08/21 05:20:45;;;;;;;8.18;5.60;;;;;;;19.76;100.00;96660.81;5107192;28;20576;-71
2023/08/21 05:23:11;;;;;;;10.45;5.70;;;;;;;19.82;100.00;96663.81;5098259;28;20026;-71
2023/08/21 05:25:36;;;;;;;10.90;6.30;;;;;;;19.82;100.00;96659.28;5093363;28;20032;-71
2023/08/21 05:28:02;;;;;;;8.63;5.78;;;;;;;19.81;100.00;96665.63;5110914;27;20031;-71
2023/08/21 05:30:27;;;;;;;10.73;5.30;;;;;;;19.86;100.00;96663.25;5094234;28;20040;-71
2023/08/21 05:32:53;;;;;;;10.80;5.95;;;;;;;19.87;100.00;96664.91;5106476;27;20030;-71
2023/08/21 05:35:18;;;;;;;10.65;5.65;;;;;;;19.88;100.00;96661.25;5096388;28;20019;-71
2023/08/21 05:37:44;;;;;;;11.88;5.68;;;;;;;19.94;100.00;96664.25;5097862;28;20027;-71
2023/08/21 05:40:09;;;;;;;15.32;6.47;;;;;;;19.83;100.00;96671.63;5108400;28;20469;-71
2023/08/21 05:42:35;;;;;;;12.57;6.63;;;;;;;19.82;100.00;96674.50;5094555;28;20103;-71
2023/08/21 05:45:00;;;;;;;17.40;6.00;;;;;;;19.84;100.00;96672.47;5094281;28;20028;-71
2023/08/21 05:47:26;;;;;;;18.55;6.47;;;;;;;19.87;100.00;96674.78;5097057;28;20019;-71
2023/08/21 05:49:53;;;;;;;20.52;6.65;;;;;;;19.73;100.00;96677.19;5115393;28;20050;-71
2023/08/21 05:52:18;;;;;;;8.55;5.75;;;;;;;19.70;100.00;96677.56;5097646;28;20027;-71
2023/08/21 05:54:44;;;;;;;9.10;5.50;;;;;;;19.62;100.00;96674.94;5103860;28;20407;-71
2023/08/21 05:57:09;;;;;;;14.77;7.57;;;;;;;19.62;100.00;96677.59;5097428;28;20103;-71
2023/08/21 05:59:34;;;;;;;14.48;7.10;;;;;;;19.63;100.00;96673.94;5094417;28;20023;-71
2023/08/21 06:02:00;;;;;;;8.90;5.75;;;;;;;19.62;100.00;96677.59;5097073;28;20546;-70
2023/08/21 06:04:26;;;;;;;8.43;6.03;;;;;;;19.63;100.00;96673.09;5104693;28;20408;-71
2023/08/21 06:06:52;;;;;;;10.48;5.50;;;;;;;19.57;100.00;96677.31;5102956;28;20035;-71
2023/08/21 06:09:18;;;;;;;7.97;6.32;;;;;;;19.56;100.00;96675.63;5094310;28;20016;-70
2023/08/21 06:11:43;;;;;;;10.18;5.97;;;;;;;19.56;100.00;96672.94;5076104;28;20059;-70
2023/08/21 06:14:09;;;;;;;7.60;6.28;;;;;;;19.60;100.00;96679.63;5093743;28;20046;-71
2023/08/21 06:16:34;;;;;;;9.80;5.03;;;;;;;19.66;100.00;96676.25;5083987;28;20120;-72
2023/08/21 06:18:59;;;;;;;7.53;5.88;;;;;;;19.80;100.00;96681.84;5111940;28;20031;-70
2023/08/21 06:21:25;;;;;;;8.48;5.78;;;;;;;19.97;100.00;96680.75;5084279;28;20498;-70
2023/08/21 06:23:50;;;;;;;10.63;5.43;;;;;;;20.12;100.00;96672.81;5093916;28;20028;-71
2023/08/21 06:26:16;;;;;;;6.40;5.38;;;;;;;20.28;100.00;96669.19;5102391;28;20047;-71
2023/08/21 06:28:41;;;;;;;9.40;5.20;;;;;;;20.48;100.00;96674.03;5097711;28;20109;-71
2023/08/21 06:31:08;;;;;;;8.70;5.15;;;;;;;20.64;100.00;96665.03;5094411;28;20039;-71
2023/08/21 06:33:34;;;;;;;8.63;5.40;;;;;;;20.79;100.00;96675.75;5093787;28;20024;-71
2023/08/21 06:35:59;;;;;;;10.32;5.65;;;;;;;20.96;100.00;96664.91;5094430;28;20020;-70
2023/08/21 06:38:25;;;;;;;9.05;5.38;;;;;;;21.20;100.00;96654.94;5096158;28;20024;-71
2023/08/21 06:40:50;;;;;;;12.95;4.88;;;;;;;21.42;100.00;96667.38;5094039;28;20020;-70
2023/08/21 06:43:17;;;;;;;9.95;5.22;;;;;;;21.67;100.00;96655.56;5096697;28;20384;-70
2023/08/21 06:45:42;;;;;;;10.18;5.47;;;;;;;21.92;100.00;96647.97;5081155;28;20034;-71
2023/08/21 06:48:07;;;;;;;11.57;5.13;;;;;;;22.15;100.00;96637.06;5101471;28;20455;-70
2023/08/21 06:50:33;;;;;;;8.35;5.07;;;;;;;22.32;100.00;96632.25;5092187;28;20016;-70
2023/08/21 06:52:58;;;;;;;8.23;4.80;;;;;;;22.56;100.00;96643.63;5100291;28;20020;-70
2023/08/21 06:55:24;;;;;;;6.00;4.95;;;;;;;22.89;100.00;96643.03;5098918;28;20024;-70
2023/08/21 06:57:49;;;;;;;8.70;4.90;;;;;;;23.18;100.00;96624.16;5092132;28;20445;-71
2023/08/21 07:00:15;;;;;;;11.05;4.82;;;;;;;23.36;100.00;96620.16;5093445;28;20089;-70
2023/08/21 07:02:40;;;;;;;5.68;4.53;;;;;;;23.63;100.00;96631.81;5097226;28;20031;-70
2023/08/21 07:05:06;;;;;;;7.53;4.45;;;;;;;23.92;100.00;96624.44;5093014;28;20016;-70
2023/08/21 07:07:32;;;;;;;8.25;4.80;;;;;;;24.23;100.00;96614.16;5104224;28;20056;-70
2023/08/21 07:09:58;;;;;;;8.60;4.32;;;;;;;24.54;100.00;96623.50;5097597;28;20466;-70
2023/08/21 07:12:23;;;;;;;8.68;5.18;;;;;;;24.95;100.00;96618.91;5103939;28;20120;-70
2023/08/21 07:14:49;;;;;;;16.20;5.45;;;;;;;25.26;100.00;96609.25;5097380;28;20046;-70
2023/08/21 07:17:14;;;;;;;11.52;5.25;;;;;;;25.55;100.00;96604.41;5101618;28;20094;-70
2023/08/21 07:19:39;;;;;;;9.40;6.70;;;;;;;25.78;100.00;96603.03;5101951;28;20028;-70
2023/08/21 07:22:05;;;;;;;5.18;4.20;;;;;;;26.07;100.00;96595.38;5100256;28;20023;-71
2023/08/21 07:24:30;;;;;;;12.95;5.00;;;;;;;26.49;100.00;96598.38;5102408;28;20033;-70
2023/08/21 07:26:56;;;;;;;7.35;5.30;;;;;;;26.72;100.00;96583.44;5100307;27;20024;-70
2023/08/21 07:29:21;;;;;;;12.00;4.60;;;;;;;26.98;100.00;96578.81;5097294;28;20066;-70
2023/08/21 07:31:46;;;;;;;6.20;4.72;;;;;;;27.19;100.00;96577.53;5097059;28;20559;-70
2023/08/21 07:34:12;;;;;;;12.38;4.25;;;;;;;27.28;100.00;96583.44;5106305;27;20046;-70
2023/08/21 07:36:37;;;;;;;7.38;4.50;;;;;;;27.45;100.00;96572.84;5096806;28;20024;-70
2023/08/21 07:39:03;;;;;;;9.65;5.03;;;;;;;27.82;100.00;96571.94;5096510;28;20387;-70
2023/08/21 07:41:29;;;;;;;10.25;4.80;;;;;;;28.01;100.00;96568.13;5095302;28;20016;-70
2023/08/21 07:43:54;;;;;;;27.75;6.95;;;;;;;28.20;100.00;96578.06;5095181;28;20047;-70
2023/08/21 07:46:20;;;;;;;22.73;6.50;;;;;;;28.40;100.00;96575.00;5097395;28;20020;-70
2023/08/21 07:48:45;;;;;;;17.75;6.75;;;;;;;28.48;100.00;96579.25;5096970;27;20039;-70
2023/08/21 07:51:11;;;;;;;27.17;7.30;;;;;;;28.56;100.00;96577.00;5096760;28;20027;-70
2023/08/21 07:53:37;;;;;;;27.42;7.55;;;;;;;28.72;100.00;96571.94;5096116;28;20035;-69
2023/08/21 07:56:06;;;;;;;16.67;6.45;;;;;;;29.10;100.00;96572.50;5096446;28;20036;-69
2023/08/21 07:58:32;;;;;;;18.55;6.40;;;;;;;29.19;100.00;96567.53;5096231;28;20370;-70
2023/08/21 08:00:58;;;;;;;17.33;5.97;;;;;;;29.49;100.00;96566.53;5096809;28;20035;-69
2023/08/21 08:03:24;;;;;;;13.43;4.53;;;;;;;29.70;100.00;96562.31;5094719;28;20031;-70
2023/08/21 08:05:49;;;;;;;8.18;4.07;;;;;;;29.83;100.00;96558.47;5101604;28;20035;-70
2023/08/21 08:08:17;;;;;;;7.53;4.30;;;;;;;29.99;100.00;96560.38;5112191;28;20034;-69
2023/08/21 08:10:42;;;;;;;11.77;4.63;;;;;;;29.84;100.00;96551.97;5099600;28;20093;-69
2023/08/21 08:13:08;;;;;;;6.78;3.80;;;;;;;30.05;100.00;96555.88;5096311;28;20028;-70
2023/08/21 08:15:34;;;;;;;8.75;4.57;;;;;;;30.56;100.00;96550.41;5096467;28;20023;-70
2023/08/21 08:18:04;;;;;;;10.25;4.05;;;;;;;30.75;100.00;96549.38;5096040;28;20040;-70
2023/08/21 08:20:30;;;;;;;12.77;4.07;;;;;;;30.67;100.00;96550.63;5105391;28;20073;-70
2023/08/21 08:22:56;;;;;;;8.25;4.93;;;;;;;30.98;100.00;96542.88;5096004;28;20490;-69
2023/08/21 08:25:22;;;;;;;8.90;4.80;;;;;;;30.84;100.00;96548.69;5096053;28;20077;-70
2023/08/21 08:27:47;;;;;;;10.20;4.57;;;;;;;30.97;100.00;96552.09;5107287;27;20028;-70
2023/08/21 08:30:13;;;;;;;12.60;4.40;;;;;;;30.96;100.00;96542.28;5094236;28;20083;-70
2023/08/21 08:32:44;;;;;;;8.70;4.03;;;;;;;31.13;100.00;96540.34;5103469;27;20050;-69
2023/08/21 08:35:10;;;;;;;12.23;3.95;;;;;;;31.53;100.00;96543.00;5101210;27;20024;-70
2023/08/21 08:37:35;;;;;;;14.10;4.57;;;;;;;31.66;100.00;96537.13;5095853;28;20519;-70
2023/08/21 08:40:00;;;;;;;13.65;4.50;;;;;;;31.55;100.00;96541.63;5096564;28;20028;-70
2023/08/21 08:42:26;;;;;;;14.20;4.95;;;;;;;32.03;100.00;96540.22;5106504;28;20035;-70
2023/08/21 08:44:54;;;;;;;7.30;3.80;;;;;;;32.06;100.00;96526.06;5101654;28;20599;-70
2023/08/21 08:47:20;;;;;;;7.80;4.57;;;;;;;31.78;100.00;96525.31;5095625;28;20027;-70
2023/08/21 08:49:48;;;;;;;6.47;3.90;;;;;;;31.94;100.00;96531.69;5106299;27;20023;-70
2023/08/21 08:52:17;;;;;;;6.43;4.32;;;;;;;31.65;100.00;96521.88;5112521;28;20046;-70
2023/08/21 08:54:42;;;;;;;13.27;4.65;;;;;;;31.70;100.00;96519.19;5103938;28;20027;-70
2023/08/21 08:57:08;;;;;;;7.57;3.97;;;;;;;32.05;100.00;96517.06;5111212;28;20030;-70
2023/08/21 08:59:34;;;;;;;10.35;4.20;;;;;;;32.26;100.00;96515.34;5094134;28;20080;-70
2023/08/21 09:02:00;;;;;;;8.50;4.40;;;;;;;32.43;100.00;96512.47;5094029;28;20028;-70
2023/08/21 09:04:25;;;;;;;10.00;4.10;;;;;;;32.44;100.00;96510.59;5099456;28;20028;-70
2023/08/21 09:06:50;;;;;;;5.97;4.13;;;;;;;32.44;100.00;96510.59;5095139;28;20385;-70
2023/08/21 09:09:16;;;;;;;10.80;4.18;;;;;;;32.48;100.00;96499.97;5108544;28;20024;-70
2023/08/21 09:11:47;;;;;;;17.25;5.10;;;;;;;32.71;100.00;96496.00;5095115;28;20633;-71
2023/08/21 09:14:12;;;;;;;7.18;4.13;;;;;;;33.02;100.00;96498.09;5108226;28;20111;-70
2023/08/21 09:16:58;;;;;;;10.77;3.97;;;;;;;33.50;100.00;96495.25;5093327;28;20054;-70
2023/08/21 09:19:24;;;;;;;7.90;3.90;;;;;;;33.32;100.00;96496.53;5104238;28;20083;-70
2023/08/21 09:21:49;;;;;;;8.40;4.00;;;;;;;33.27;100.00;96489.97;5095082;28;20499;-70
2023/08/21 09:24:14;;;;;;;6.50;3.67;;;;;;;33.09;100.00;96494.03;5094366;28;20049;-71
2023/08/21 09:26:40;;;;;;;8.48;3.78;;;;;;;32.92;100.00;96496.13;5107988;27;20452;-70
2023/08/21 09:29:05;;;;;;;8.70;3.97;;;;;;;32.70;100.00;96488.91;5100991;28;20515;-71
2023/08/21 09:31:32;;;;;;;8.60;3.80;;;;;;;32.99;100.00;96488.53;5100712;27;20463;-71
2023/08/21 09:34:05;;;;;;;11.73;4.18;;;;;;;33.04;100.00;96485.00;5104316;27;20685;-69
2023/08/21 09:36:32;;;;;;;8.32;3.85;;;;;;;33.40;100.00;96479.66;5095015;28;20107;-68
2023/08/21 09:38:57;;;;;;;5.85;3.38;;;;;;;33.71;100.00;96479.72;5103914;28;20028;-68
2023/08/21 09:41:24;;;;;;;7.07;3.90;;;;;;;33.85;100.00;96477.25;5094437;28;20574;-68
2023/08/21 09:43:50;;;;;;;8.20;3.85;;;;;;;33.76;100.00;96478.91;5094621;28;20023;-68
2023/08/21 09:46:16;;;;;;;8.80;3.70;;;;;;;33.76;100.00;96470.72;5099796;28;20537;-69
2023/08/21 09:48:44;;;;;;;7.60;3.10;;;;;;;33.74;100.00;96472.91;5093988;28;20149;-69
2023/08/21 09:51:10;;;;;;;7.82;4.18;;;;;;;33.47;100.00;96466.59;5106301;28;20028;-69
2023/08/21 09:53:36;;;;;;;8.57;3.80;;;;;;;33.68;100.00;96470.13;5094423;28;20023;-69
2023/08/21 09:56:04;;;;;;;7.88;3.55;;;;;;;33.69;100.00;96471.78;5101773;28;20038;-72
2023/08/21 09:58:29;;;;;;;9.07;3.60;;;;;;;33.66;100.00;96471.53;5100096;28;20036;-71
2023/08/21 10:00:59;;;;;;;7.57;3.35;;;;;;;33.91;100.00;96469.88;5113822;28;20038;-72
2023/08/21 10:03:25;;;;;;;5.93;3.15;;;;;;;33.95;100.00;96462.78;5103238;28;20035;-72
2023/08/21 10:05:53;;;;;;;8.88;4.20;;;;;;;33.86;100.00;96457.88;5094162;28;20119;-71
2023/08/21 10:08:25;;;;;;;5.18;3.28;;;;;;;34.04;100.00;96454.88;5094017;28;20020;-71
2023/08/21 10:10:51;;;;;;;6.25;3.45;;;;;;;34.04;100.00;96452.16;5094354;28;20500;-69
2023/08/21 10:13:18;;;;;;;5.05;3.20;;;;;;;34.00;100.00;96460.06;5094272;28;20046;-69
2023/08/21 10:15:44;;;;;;;5.53;3.10;;;;;;;34.18;100.00;96450.50;5097520;28;20023;-69
2023/08/21 10:18:24;;;;;;;6.20;3.47;;;;;;;34.22;100.00;96451.59;5108752;28;20516;-69
2023/08/21 10:20:51;;;;;;;6.80;3.17;;;;;;;34.17;100.00;96446.13;5093739;28;20036;-68
2023/08/21 10:23:30;;;;;;;7.50;3.45;;;;;;;34.02;100.00;96441.50;5094066;28;20031;-71
2023/08/21 10:25:58;;;;;;;5.72;3.28;;;;;;;34.59;100.00;96446.84;5093958;28;20031;-71
2023/08/21 10:28:23;;;;;;;7.00;3.22;;;;;;;34.65;100.00;96437.53;5093656;28;20475;-71
2023/08/21 10:30:49;;;;;;;10.40;3.47;;;;;;;34.76;100.00;96434.78;5092976;28;20028;-71
2023/08/21 10:33:14;;;;;;;7.55;3.45;;;;;;;34.79;100.00;96431.47;5104156;28;20050;-71
2023/08/21 10:35:40;;;;;;;4.72;3.60;;;;;;;34.79;100.00;96435.00;5105536;28;20028;-70
2023/08/21 10:38:15;;;;;;;5.38;3.22;;;;;;;34.71;100.00;96430.13;5096278;28;20028;-70
2023/08/21 10:41:00;;;;;;;7.13;3.28;;;;;;;35.05;100.00;96431.38;5094986;28;20073;-70
2023/08/21 10:43:45;;;;;;;10.95;3.75;;;;;;;35.25;100.00;96417.56;5110091;28;20016;-70
2023/08/21 10:46:12;;;;;;;7.90;3.60;;;;;;;35.59;100.00;96418.72;5105001;28;20087;-70
2023/08/21 10:48:39;;;;;;;6.28;3.47;;;;;;;35.75;100.00;96418.59;5096582;28;20020;-71
2023/08/21 10:51:07;;;;;;;4.38;3.50;;;;;;;35.90;100.00;96409.41;5109723;28;20051;-70
2023/08/21 10:53:33;;;;;;;8.38;3.33;;;;;;;36.01;100.00;96418.34;5094875;28;20034;-70
2023/08/21 10:56:06;;;;;;;6.43;3.40;;;;;;;36.07;100.00;96411.75;5101086;28;20019;-70
2023/08/21 10:58:39;;;;;;;6.55;3.88;;;;;;;36.04;100.00;96417.81;5113329;28;20031;-70
2023/08/21 11:01:04;;;;;;;8.73;3.67;;;;;;;36.23;100.00;96413.22;5096570;28;20039;-70
2023/08/21 11:03:30;;;;;;;4.80;3.65;;;;;;;35.97;100.00;96413.47;5099347;28;20430;-71
2023/08/21 11:06:07;;;;;;;6.10;3.30;;;;;;;36.07;100.00;96409.84;5098336;28;20032;-68
2023/08/21 11:08:33;;;;;;;10.38;3.78;;;;;;;36.54;100.00;96409.34;5116276;28;20115;-68
2023/08/21 11:11:00;;;;;;;7.90;4.18;;;;;;;36.68;100.00;96406.72;5110913;28;20024;-68
2023/08/21 11:13:26;;;;;;;8.90;3.25;;;;;;;36.27;100.00;96408.00;5094682;28;20028;-68
2023/08/21 11:15:59;;;;;;;8.98;3.63;;;;;;;36.51;100.00;96410.72;5101392;28;20072;-68
2023/08/21 11:18:37;;;;;;;7.50;3.90;;;;;;;36.19;100.00;96408.59;5102566;28;20063;-68